sensor_id;sensor_type;location;lat;lon;timestamp;temperature;humidity
60027;DHT22;45891;53.006;6.512;2024-01-10T00:00:38;-4.00;99.90
60027;DHT22;45891;53.006;6.512;2024-01-10T00:03:04;-4.00;99.90
60027;DHT22;45891;53.006;6.512;2024-01-10T00:05:30;-4.00;99.90
60027;DHT22;45891;53.006;6.512;2024-01-10T00:07:56;-4.00;99.90
60027;DHT22;45891;53.006;6.512;2024-01-10T00:10:22;-4.00;99.90
60027;DHT22;45891;53.006;6.512;2024-01-10T00:12:48;-4.00;99.90
60027;DHT22;45891;53.006;6.512;2024-01-10T00:15:13;-4.00;99.90
60027;DHT22;45891;53.006;6.512;2024-01-10T00:17:40;-4.00;99.90
60027;DHT22;45891;53.006;6.512;2024-01-10T00:20:06;-4.00;99.90
60027;DHT22;45891;53.006;6.512;2024-01-10T00:22:32;-4.00;99.90
60027;DHT22;45891;53.006;6.512;2024-01-10T00:24:59;-4.00;99.90
60027;DHT22;45891;53.006;6.512;2024-01-10T00:27:24;-4.10;99.90
60027;DHT22;45891;53.006;6.512;2024-01-10T00:29:50;-4.10;99.90
60027;DHT22;45891;53.006;6.512;2024-01-10T00:32:17;-4.10;99.90
60027;DHT22;45891;53.006;6.512;2024-01-10T00:34:43;-4.10;99.90
60027;DHT22;45891;53.006;6.512;2024-01-10T00:37:09;-4.10;99.90
60027;DHT22;45891;53.006;6.512;2024-01-10T00:39:35;-4.10;99.90
60027;DHT22;45891;53.006;6.512;2024-01-10T00:42:01;-4.10;99.90
60027;DHT22;45891;53.006;6.512;2024-01-10T00:44:26;-4.10;99.90
60027;DHT22;45891;53.006;6.512;2024-01-10T00:46:52;-4.10;99.90
60027;DHT22;45891;53.006;6.512;2024-01-10T00:49:18;-4.20;99.90
60027;DHT22;45891;53.006;6.512;2024-01-10T00:51:44;-4.20;99.90
60027;DHT22;45891;53.006;6.512;2024-01-10T00:54:10;-4.20;99.90
60027;DHT22;45891;53.006;6.512;2024-01-10T00:56:36;-4.20;99.90
60027;DHT22;45891;53.006;6.512;2024-01-10T00:59:02;-4.20;99.90
60027;DHT22;45891;53.006;6.512;2024-01-10T01:01:28;-4.30;99.90
60027;DHT22;45891;53.006;6.512;2024-01-10T01:03:54;-4.20;99.90
60027;DHT22;45891;53.006;6.512;2024-01-10T01:06:20;-4.30;99.90
60027;DHT22;45891;53.006;6.512;2024-01-10T01:08:46;-4.30;99.90
60027;DHT22;45891;53.006;6.512;2024-01-10T01:11:12;-4.30;99.90
60027;DHT22;45891;53.006;6.512;2024-01-10T01:13:40;-4.30;99.90
60027;DHT22;45891;53.006;6.512;2024-01-10T01:16:06;-4.30;99.90
60027;DHT22;45891;53.006;6.512;2024-01-10T01:18:32;-4.30;99.90
60027;DHT22;45891;53.006;6.512;2024-01-10T01:20:58;-4.40;99.90
60027;DHT22;45891;53.006;6.512;2024-01-10T01:23:23;-4.40;99.90
60027;DHT22;45891;53.006;6.512;2024-01-10T01:25:49;-4.40;99.90
60027;DHT22;45891;53.006;6.512;2024-01-10T01:28:16;-4.40;99.90
60027;DHT22;45891;53.006;6.512;2024-01-10T01:30:42;-4.40;99.90
60027;DHT22;45891;53.006;6.512;2024-01-10T01:33:08;-4.50;99.90
60027;DHT22;45891;53.006;6.512;2024-01-10T01:35:34;-4.40;99.90
60027;DHT22;45891;53.006;6.512;2024-01-10T01:38:00;-4.50;99.90
60027;DHT22;45891;53.006;6.512;2024-01-10T01:40:26;-4.50;99.90
60027;DHT22;45891;53.006;6.512;2024-01-10T01:42:51;-4.50;99.90
60027;DHT22;45891;53.006;6.512;2024-01-10T01:45:19;-4.50;99.90
60027;DHT22;45891;53.006;6.512;2024-01-10T01:47:45;-4.60;99.90
60027;DHT22;45891;53.006;6.512;2024-01-10T01:50:11;-4.60;99.90
60027;DHT22;45891;53.006;6.512;2024-01-10T01:52:37;-4.50;99.90
60027;DHT22;45891;53.006;6.512;2024-01-10T01:55:04;-4.60;99.90
60027;DHT22;45891;53.006;6.512;2024-01-10T01:57:30;-4.60;99.90
60027;DHT22;45891;53.006;6.512;2024-01-10T01:59:56;-4.60;99.90
60027;DHT22;45891;53.006;6.512;2024-01-10T02:02:22;-4.60;99.90
60027;DHT22;45891;53.006;6.512;2024-01-10T02:04:49;-4.60;99.90
60027;DHT22;45891;53.006;6.512;2024-01-10T02:07:15;-4.60;99.90
60027;DHT22;45891;53.006;6.512;2024-01-10T02:09:41;-4.50;99.90
60027;DHT22;45891;53.006;6.512;2024-01-10T02:12:07;-4.60;99.90
60027;DHT22;45891;53.006;6.512;2024-01-10T02:14:33;-4.60;99.90
60027;DHT22;45891;53.006;6.512;2024-01-10T02:17:00;-4.60;99.90
60027;DHT22;45891;53.006;6.512;2024-01-10T02:19:26;-4.60;99.90
60027;DHT22;45891;53.006;6.512;2024-01-10T02:21:53;-4.60;99.90
60027;DHT22;45891;53.006;6.512;2024-01-10T02:24:19;-4.60;99.90
60027;DHT22;45891;53.006;6.512;2024-01-10T02:26:45;-4.60;99.90
60027;DHT22;45891;53.006;6.512;2024-01-10T02:29:11;-4.60;99.90
60027;DHT22;45891;53.006;6.512;2024-01-10T02:31:37;-4.50;99.90
60027;DHT22;45891;53.006;6.512;2024-01-10T02:34:03;-4.60;99.90
60027;DHT22;45891;53.006;6.512;2024-01-10T02:36:29;-4.60;99.90
60027;DHT22;45891;53.006;6.512;2024-01-10T02:38:55;-4.60;99.90
60027;DHT22;45891;53.006;6.512;2024-01-10T02:41:21;-4.60;99.90
60027;DHT22;45891;53.006;6.512;2024-01-10T02:43:47;-4.60;99.90
60027;DHT22;45891;53.006;6.512;2024-01-10T02:46:13;-4.60;99.90
60027;DHT22;45891;53.006;6.512;2024-01-10T02:48:39;-4.60;99.90
60027;DHT22;45891;53.006;6.512;2024-01-10T02:51:05;-4.60;99.90
60027;DHT22;45891;53.006;6.512;2024-01-10T02:53:31;-4.60;99.90
60027;DHT22;45891;53.006;6.512;2024-01-10T02:55:57;-4.60;99.90
60027;DHT22;45891;53.006;6.512;2024-01-10T02:58:23;-4.60;99.90
60027;DHT22;45891;53.006;6.512;2024-01-10T03:00:51;-4.70;99.90
60027;DHT22;45891;53.006;6.512;2024-01-10T03:03:17;-4.70;99.90
60027;DHT22;45891;53.006;6.512;2024-01-10T03:05:42;-4.70;99.90
60027;DHT22;45891;53.006;6.512;2024-01-10T03:08:08;-4.70;99.90
60027;DHT22;45891;53.006;6.512;2024-01-10T03:10:34;-4.70;99.90
60027;DHT22;45891;53.006;6.512;2024-01-10T03:13:00;-4.70;99.90
60027;DHT22;45891;53.006;6.512;2024-01-10T03:15:26;-4.70;99.90
60027;DHT22;45891;53.006;6.512;2024-01-10T03:17:52;-4.70;99.90
60027;DHT22;45891;53.006;6.512;2024-01-10T03:20:18;-4.70;99.90
60027;DHT22;45891;53.006;6.512;2024-01-10T03:22:44;-4.80;99.90
60027;DHT22;45891;53.006;6.512;2024-01-10T03:25:10;-4.80;99.90
60027;DHT22;45891;53.006;6.512;2024-01-10T03:27:36;-4.80;99.90
60027;DHT22;45891;53.006;6.512;2024-01-10T03:30:02;-4.80;99.90
60027;DHT22;45891;53.006;6.512;2024-01-10T03:32:28;-4.80;99.90
60027;DHT22;45891;53.006;6.512;2024-01-10T03:34:54;-4.80;99.90
60027;DHT22;45891;53.006;6.512;2024-01-10T03:37:20;-4.80;99.90
60027;DHT22;45891;53.006;6.512;2024-01-10T03:39:46;-4.90;99.90
60027;DHT22;45891;53.006;6.512;2024-01-10T03:42:12;-4.90;99.90
60027;DHT22;45891;53.006;6.512;2024-01-10T03:44:38;-4.90;99.90
60027;DHT22;45891;53.006;6.512;2024-01-10T03:47:03;-4.80;99.90
60027;DHT22;45891;53.006;6.512;2024-01-10T03:49:29;-4.80;99.90
60027;DHT22;45891;53.006;6.512;2024-01-10T03:51:55;-4.80;99.90
60027;DHT22;45891;53.006;6.512;2024-01-10T03:54:21;-4.80;99.90
60027;DHT22;45891;53.006;6.512;2024-01-10T03:56:47;-4.90;99.90
60027;DHT22;45891;53.006;6.512;2024-01-10T03:59:13;-4.90;99.90
60027;DHT22;45891;53.006;6.512;2024-01-10T04:01:39;-4.90;99.90
60027;DHT22;45891;53.006;6.512;2024-01-10T04:04:05;-4.90;99.90
60027;DHT22;45891;53.006;6.512;2024-01-10T04:06:31;-4.90;99.90
60027;DHT22;45891;53.006;6.512;2024-01-10T04:08:57;-5.00;99.90
60027;DHT22;45891;53.006;6.512;2024-01-10T04:11:23;-5.00;99.90
60027;DHT22;45891;53.006;6.512;2024-01-10T04:13:49;-5.00;99.90
60027;DHT22;45891;53.006;6.512;2024-01-10T04:16:14;-5.10;99.90
60027;DHT22;45891;53.006;6.512;2024-01-10T04:18:40;-5.10;99.90
60027;DHT22;45891;53.006;6.512;2024-01-10T04:21:06;-5.10;99.90
60027;DHT22;45891;53.006;6.512;2024-01-10T04:23:32;-5.10;99.90
60027;DHT22;45891;53.006;6.512;2024-01-10T04:26:00;-5.20;99.90
60027;DHT22;45891;53.006;6.512;2024-01-10T04:28:27;-5.20;99.90
60027;DHT22;45891;53.006;6.512;2024-01-10T04:30:53;-5.20;99.90
60027;DHT22;45891;53.006;6.512;2024-01-10T04:33:18;-5.20;99.90
60027;DHT22;45891;53.006;6.512;2024-01-10T04:35:44;-5.20;99.90
60027;DHT22;45891;53.006;6.512;2024-01-10T04:38:10;-5.20;99.90
60027;DHT22;45891;53.006;6.512;2024-01-10T04:40:36;-5.20;99.90
60027;DHT22;45891;53.006;6.512;2024-01-10T04:43:02;-5.20;99.90
60027;DHT22;45891;53.006;6.512;2024-01-10T04:45:28;-5.20;99.90
60027;DHT22;45891;53.006;6.512;2024-01-10T04:47:54;-5.20;99.90
60027;DHT22;45891;53.006;6.512;2024-01-10T04:50:20;-5.20;99.90
60027;DHT22;45891;53.006;6.512;2024-01-10T04:52:46;-5.20;99.90
60027;DHT22;45891;53.006;6.512;2024-01-10T04:55:12;-5.20;99.90
60027;DHT22;45891;53.006;6.512;2024-01-10T04:57:37;-5.20;99.90
60027;DHT22;45891;53.006;6.512;2024-01-10T05:00:04;-5.20;99.90
60027;DHT22;45891;53.006;6.512;2024-01-10T05:02:30;-5.20;99.90
60027;DHT22;45891;53.006;6.512;2024-01-10T05:04:56;-5.20;99.90
60027;DHT22;45891;53.006;6.512;2024-01-10T05:07:22;-5.20;99.90
60027;DHT22;45891;53.006;6.512;2024-01-10T05:09:48;-5.20;99.90
60027;DHT22;45891;53.006;6.512;2024-01-10T05:12:14;-5.20;99.90
60027;DHT22;45891;53.006;6.512;2024-01-10T05:14:39;-5.20;99.90
60027;DHT22;45891;53.006;6.512;2024-01-10T05:17:06;-5.30;99.90
60027;DHT22;45891;53.006;6.512;2024-01-10T05:19:32;-5.30;99.90
60027;DHT22;45891;53.006;6.512;2024-01-10T05:21:58;-5.30;99.90
60027;DHT22;45891;53.006;6.512;2024-01-10T05:24:24;-5.30;99.90
60027;DHT22;45891;53.006;6.512;2024-01-10T05:26:50;-5.30;99.90
60027;DHT22;45891;53.006;6.512;2024-01-10T05:29:17;-5.30;99.90
60027;DHT22;45891;53.006;6.512;2024-01-10T05:31:45;-5.30;99.90
60027;DHT22;45891;53.006;6.512;2024-01-10T05:34:12;-5.30;99.90
60027;DHT22;45891;53.006;6.512;2024-01-10T05:36:38;-5.30;99.90
60027;DHT22;45891;53.006;6.512;2024-01-10T05:39:04;-5.30;99.90
60027;DHT22;45891;53.006;6.512;2024-01-10T05:41:30;-5.30;99.90
60027;DHT22;45891;53.006;6.512;2024-01-10T05:43:56;-5.30;99.90
60027;DHT22;45891;53.006;6.512;2024-01-10T05:46:22;-5.30;99.90
60027;DHT22;45891;53.006;6.512;2024-01-10T05:48:48;-5.30;99.90
60027;DHT22;45891;53.006;6.512;2024-01-10T05:51:14;-5.30;99.90
60027;DHT22;45891;53.006;6.512;2024-01-10T05:53:39;-5.30;99.90
60027;DHT22;45891;53.006;6.512;2024-01-10T05:56:06;-5.30;99.90
60027;DHT22;45891;53.006;6.512;2024-01-10T05:58:32;-5.30;99.90
60027;DHT22;45891;53.006;6.512;2024-01-10T06:00:58;-5.30;99.90
60027;DHT22;45891;53.006;6.512;2024-01-10T06:03:24;-5.30;99.90
60027;DHT22;45891;53.006;6.512;2024-01-10T06:05:50;-5.30;99.90
60027;DHT22;45891;53.006;6.512;2024-01-10T06:08:16;-5.30;99.90
60027;DHT22;45891;53.006;6.512;2024-01-10T06:10:42;-5.30;99.90
60027;DHT22;45891;53.006;6.512;2024-01-10T06:13:08;-5.30;99.90
60027;DHT22;45891;53.006;6.512;2024-01-10T06:15:34;-5.30;99.90
60027;DHT22;45891;53.006;6.512;2024-01-10T06:18:00;-5.30;99.90
60027;DHT22;45891;53.006;6.512;2024-01-10T06:20:26;-5.30;99.90
60027;DHT22;45891;53.006;6.512;2024-01-10T06:22:52;-5.30;99.90
60027;DHT22;45891;53.006;6.512;2024-01-10T06:25:18;-5.30;99.90
60027;DHT22;45891;53.006;6.512;2024-01-10T06:27:43;-5.30;99.90
60027;DHT22;45891;53.006;6.512;2024-01-10T06:30:09;-5.30;99.90
60027;DHT22;45891;53.006;6.512;2024-01-10T06:32:35;-5.30;99.90
60027;DHT22;45891;53.006;6.512;2024-01-10T06:35:01;-5.30;99.90
60027;DHT22;45891;53.006;6.512;2024-01-10T06:37:28;-5.20;99.90
60027;DHT22;45891;53.006;6.512;2024-01-10T06:39:54;-5.30;99.90
60027;DHT22;45891;53.006;6.512;2024-01-10T06:42:20;-5.30;99.90
60027;DHT22;45891;53.006;6.512;2024-01-10T06:44:46;-5.20;99.90
60027;DHT22;45891;53.006;6.512;2024-01-10T06:47:12;-5.20;99.90
60027;DHT22;45891;53.006;6.512;2024-01-10T06:49:37;-5.20;99.90
60027;DHT22;45891;53.006;6.512;2024-01-10T06:52:04;-5.20;99.90
60027;DHT22;45891;53.006;6.512;2024-01-10T06:54:32;-5.20;99.90
60027;DHT22;45891;53.006;6.512;2024-01-10T06:56:58;-5.20;99.90
60027;DHT22;45891;53.006;6.512;2024-01-10T06:59:24;-5.20;99.90
60027;DHT22;45891;53.006;6.512;2024-01-10T07:01:53;-5.20;99.90
60027;DHT22;45891;53.006;6.512;2024-01-10T07:04:22;-5.20;99.90
60027;DHT22;45891;53.006;6.512;2024-01-10T07:06:52;-5.20;99.90
60027;DHT22;45891;53.006;6.512;2024-01-10T07:09:18;-5.20;99.90
60027;DHT22;45891;53.006;6.512;2024-01-10T07:11:46;-5.30;99.90
60027;DHT22;45891;53.006;6.512;2024-01-10T07:14:13;-5.30;99.90
60027;DHT22;45891;53.006;6.512;2024-01-10T07:16:40;-5.30;99.90
60027;DHT22;45891;53.006;6.512;2024-01-10T07:19:09;-5.20;99.90
60027;DHT22;45891;53.006;6.512;2024-01-10T07:21:35;-5.20;99.90
60027;DHT22;45891;53.006;6.512;2024-01-10T07:24:00;-5.20;99.90
60027;DHT22;45891;53.006;6.512;2024-01-10T07:26:26;-5.30;99.90
60027;DHT22;45891;53.006;6.512;2024-01-10T07:28:53;-5.20;99.90
60027;DHT22;45891;53.006;6.512;2024-01-10T07:31:19;-5.20;99.90
60027;DHT22;45891;53.006;6.512;2024-01-10T07:33:45;-5.20;99.90
60027;DHT22;45891;53.006;6.512;2024-01-10T07:36:10;-5.20;99.90
60027;DHT22;45891;53.006;6.512;2024-01-10T07:38:36;-5.20;99.90
60027;DHT22;45891;53.006;6.512;2024-01-10T07:41:02;-5.20;99.90
60027;DHT22;45891;53.006;6.512;2024-01-10T07:43:28;-5.20;99.90
60027;DHT22;45891;53.006;6.512;2024-01-10T07:45:55;-5.20;99.90
60027;DHT22;45891;53.006;6.512;2024-01-10T07:48:21;-5.20;99.90
60027;DHT22;45891;53.006;6.512;2024-01-10T07:50:47;-5.10;99.90
60027;DHT22;45891;53.006;6.512;2024-01-10T07:53:13;-5.10;99.90
60027;DHT22;45891;53.006;6.512;2024-01-10T07:55:39;-5.10;99.90
60027;DHT22;45891;53.006;6.512;2024-01-10T07:58:05;-5.10;99.90
60027;DHT22;45891;53.006;6.512;2024-01-10T08:00:31;-5.10;99.90
60027;DHT22;45891;53.006;6.512;2024-01-10T08:02:57;-5.10;99.90
60027;DHT22;45891;53.006;6.512;2024-01-10T08:05:23;-5.10;99.90
60027;DHT22;45891;53.006;6.512;2024-01-10T08:07:49;-5.00;99.90
60027;DHT22;45891;53.006;6.512;2024-01-10T08:10:15;-5.00;99.90
60027;DHT22;45891;53.006;6.512;2024-01-10T08:12:41;-5.00;99.90
60027;DHT22;45891;53.006;6.512;2024-01-10T08:15:07;-5.00;99.90
60027;DHT22;45891;53.006;6.512;2024-01-10T08:17:33;-4.90;99.90
60027;DHT22;45891;53.006;6.512;2024-01-10T08:20:00;-4.90;99.90
60027;DHT22;45891;53.006;6.512;2024-01-10T08:22:26;-4.90;99.90
60027;DHT22;45891;53.006;6.512;2024-01-10T08:24:52;-4.90;99.90
60027;DHT22;45891;53.006;6.512;2024-01-10T08:27:18;-4.90;99.90
60027;DHT22;45891;53.006;6.512;2024-01-10T08:29:44;-4.80;99.90
60027;DHT22;45891;53.006;6.512;2024-01-10T08:32:10;-4.80;99.90
60027;DHT22;45891;53.006;6.512;2024-01-10T08:34:36;-4.80;99.90
60027;DHT22;45891;53.006;6.512;2024-01-10T08:37:02;-4.80;99.90
60027;DHT22;45891;53.006;6.512;2024-01-10T08:39:29;-4.70;99.90
60027;DHT22;45891;53.006;6.512;2024-01-10T08:41:56;-4.70;99.90
60027;DHT22;45891;53.006;6.512;2024-01-10T08:44:23;-4.70;99.90
60027;DHT22;45891;53.006;6.512;2024-01-10T08:46:48;-4.70;99.90
60027;DHT22;45891;53.006;6.512;2024-01-10T08:49:17;-4.60;99.90
60027;DHT22;45891;53.006;6.512;2024-01-10T08:51:43;-4.60;99.90
60027;DHT22;45891;53.006;6.512;2024-01-10T08:54:09;-4.60;99.90
60027;DHT22;45891;53.006;6.512;2024-01-10T08:56:35;-4.60;99.90
60027;DHT22;45891;53.006;6.512;2024-01-10T08:59:01;-4.60;99.90
60027;DHT22;45891;53.006;6.512;2024-01-10T09:01:27;-4.50;99.90
60027;DHT22;45891;53.006;6.512;2024-01-10T09:03:53;-4.50;99.90
60027;DHT22;45891;53.006;6.512;2024-01-10T09:06:20;-4.50;99.90
60027;DHT22;45891;53.006;6.512;2024-01-10T09:08:46;-4.50;99.90
60027;DHT22;45891;53.006;6.512;2024-01-10T09:11:12;-4.40;99.90
60027;DHT22;45891;53.006;6.512;2024-01-10T09:13:38;-4.40;99.90
60027;DHT22;45891;53.006;6.512;2024-01-10T09:16:06;-4.40;99.90
60027;DHT22;45891;53.006;6.512;2024-01-10T09:18:32;-4.30;99.90
60027;DHT22;45891;53.006;6.512;2024-01-10T09:20:58;-4.30;99.90
60027;DHT22;45891;53.006;6.512;2024-01-10T09:23:24;-4.20;99.90
60027;DHT22;45891;53.006;6.512;2024-01-10T09:25:50;-4.20;99.90
60027;DHT22;45891;53.006;6.512;2024-01-10T09:28:15;-4.20;99.90
60027;DHT22;45891;53.006;6.512;2024-01-10T09:30:42;-4.10;99.90
60027;DHT22;45891;53.006;6.512;2024-01-10T09:33:08;-4.10;99.90
60027;DHT22;45891;53.006;6.512;2024-01-10T09:35:33;-4.10;99.90
60027;DHT22;45891;53.006;6.512;2024-01-10T09:37:59;-4.00;99.90
60027;DHT22;45891;53.006;6.512;2024-01-10T09:40:26;-4.00;99.90
60027;DHT22;45891;53.006;6.512;2024-01-10T09:42:54;-3.90;99.90
60027;DHT22;45891;53.006;6.512;2024-01-10T09:45:20;-3.90;99.90
60027;DHT22;45891;53.006;6.512;2024-01-10T09:47:54;-3.80;99.90
60027;DHT22;45891;53.006;6.512;2024-01-10T09:50:21;-3.80;99.90
60027;DHT22;45891;53.006;6.512;2024-01-10T09:52:50;-3.70;99.90
60027;DHT22;45891;53.006;6.512;2024-01-10T09:55:17;-3.70;99.90
60027;DHT22;45891;53.006;6.512;2024-01-10T09:57:43;-3.60;99.90
60027;DHT22;45891;53.006;6.512;2024-01-10T10:00:10;-3.60;99.90
60027;DHT22;45891;53.006;6.512;2024-01-10T10:02:37;-3.50;99.90
60027;DHT22;45891;53.006;6.512;2024-01-10T10:05:04;-3.50;99.90
60027;DHT22;45891;53.006;6.512;2024-01-10T10:07:49;-3.50;99.90
60027;DHT22;45891;53.006;6.512;2024-01-10T10:10:16;-3.40;99.90
60027;DHT22;45891;53.006;6.512;2024-01-10T10:12:45;-3.40;99.90
60027;DHT22;45891;53.006;6.512;2024-01-10T10:15:12;-3.30;99.90
60027;DHT22;45891;53.006;6.512;2024-01-10T10:17:38;-3.30;99.90
60027;DHT22;45891;53.006;6.512;2024-01-10T10:20:21;-3.30;99.90
60027;DHT22;45891;53.006;6.512;2024-01-10T10:22:58;-3.30;99.90
60027;DHT22;45891;53.006;6.512;2024-01-10T10:25:26;-3.20;99.90
60027;DHT22;45891;53.006;6.512;2024-01-10T10:27:52;-3.20;99.90
60027;DHT22;45891;53.006;6.512;2024-01-10T10:30:18;-3.20;99.90
60027;DHT22;45891;53.006;6.512;2024-01-10T10:32:44;-3.10;99.90
60027;DHT22;45891;53.006;6.512;2024-01-10T10:35:10;-3.10;99.90
60027;DHT22;45891;53.006;6.512;2024-01-10T10:37:36;-3.10;99.90
60027;DHT22;45891;53.006;6.512;2024-01-10T10:40:02;-3.10;99.90
60027;DHT22;45891;53.006;6.512;2024-01-10T10:42:28;-3.00;99.90
60027;DHT22;45891;53.006;6.512;2024-01-10T10:44:54;-3.00;99.90
60027;DHT22;45891;53.006;6.512;2024-01-10T10:47:23;-3.00;99.90
60027;DHT22;45891;53.006;6.512;2024-01-10T10:49:52;-3.00;99.90
60027;DHT22;45891;53.006;6.512;2024-01-10T10:52:19;-2.90;99.90
60027;DHT22;45891;53.006;6.512;2024-01-10T10:54:47;-2.80;99.90
60027;DHT22;45891;53.006;6.512;2024-01-10T10:57:13;-2.80;99.90
60027;DHT22;45891;53.006;6.512;2024-01-10T10:59:39;-2.80;99.90
60027;DHT22;45891;53.006;6.512;2024-01-10T11:02:07;-2.70;99.90
60027;DHT22;45891;53.006;6.512;2024-01-10T11:04:35;-2.70;99.90
60027;DHT22;45891;53.006;6.512;2024-01-10T11:07:01;-2.70;99.90
60027;DHT22;45891;53.006;6.512;2024-01-10T11:09:26;-2.60;99.90
60027;DHT22;45891;53.006;6.512;2024-01-10T11:12:16;-2.60;99.90
60027;DHT22;45891;53.006;6.512;2024-01-10T11:17:26;-2.50;99.90
60027;DHT22;45891;53.006;6.512;2024-01-10T11:23:01;-2.50;99.90
60027;DHT22;45891;53.006;6.512;2024-01-10T11:25:31;-2.40;99.90
60027;DHT22;45891;53.006;6.512;2024-01-10T11:28:01;-2.40;99.90
60027;DHT22;45891;53.006;6.512;2024-01-10T11:30:35;-2.30;99.90
60027;DHT22;45891;53.006;6.512;2024-01-10T11:33:02;-2.30;99.90
60027;DHT22;45891;53.006;6.512;2024-01-10T11:35:28;-2.30;99.90
60027;DHT22;45891;53.006;6.512;2024-01-10T11:37:59;-2.20;99.90
60027;DHT22;45891;53.006;6.512;2024-01-10T11:43:12;-2.10;99.90
60027;DHT22;45891;53.006;6.512;2024-01-10T11:45:38;-2.10;99.90
60027;DHT22;45891;53.006;6.512;2024-01-10T11:48:15;-2.00;99.90
60027;DHT22;45891;53.006;6.512;2024-01-10T11:50:42;-2.00;99.90
60027;DHT22;45891;53.006;6.512;2024-01-10T11:53:08;-2.00;99.90
60027;DHT22;45891;53.006;6.512;2024-01-10T11:55:47;-1.90;99.90
60027;DHT22;45891;53.006;6.512;2024-01-10T11:58:14;-1.90;99.90
60027;DHT22;45891;53.006;6.512;2024-01-10T12:00:40;-1.90;99.90
60027;DHT22;45891;53.006;6.512;2024-01-10T12:03:06;-1.80;99.90
60027;DHT22;45891;53.006;6.512;2024-01-10T12:05:36;-1.80;99.90
60027;DHT22;45891;53.006;6.512;2024-01-10T12:08:06;-1.80;99.90
60027;DHT22;45891;53.006;6.512;2024-01-10T12:10:32;-1.70;99.90
60027;DHT22;45891;53.006;6.512;2024-01-10T12:13:02;-1.70;99.90
60027;DHT22;45891;53.006;6.512;2024-01-10T12:15:29;-1.70;99.90
60027;DHT22;45891;53.006;6.512;2024-01-10T12:17:55;-1.70;99.90
60027;DHT22;45891;53.006;6.512;2024-01-10T12:20:21;-1.60;99.90
60027;DHT22;45891;53.006;6.512;2024-01-10T12:22:47;-1.60;99.90
60027;DHT22;45891;53.006;6.512;2024-01-10T12:25:13;-1.00;99.90
60027;DHT22;45891;53.006;6.512;2024-01-10T12:27:40;1.00;99.90
60027;DHT22;45891;53.006;6.512;2024-01-10T12:30:06;2.30;99.90
60027;DHT22;45891;53.006;6.512;2024-01-10T12:32:33;3.40;99.70
60027;DHT22;45891;53.006;6.512;2024-01-10T12:35:02;4.20;97.70
60027;DHT22;45891;53.006;6.512;2024-01-10T12:37:28;4.50;96.60
60027;DHT22;45891;53.006;6.512;2024-01-10T12:39:54;5.10;96.20
60027;DHT22;45891;53.006;6.512;2024-01-10T12:42:20;5.50;95.40
60027;DHT22;45891;53.006;6.512;2024-01-10T12:44:47;6.00;95.00
60027;DHT22;45891;53.006;6.512;2024-01-10T12:47:19;6.40;94.50
60027;DHT22;45891;53.006;6.512;2024-01-10T12:49:45;6.50;94.00
60027;DHT22;45891;53.006;6.512;2024-01-10T12:52:12;6.70;93.60
60027;DHT22;45891;53.006;6.512;2024-01-10T12:54:39;7.20;94.40
60027;DHT22;45891;53.006;6.512;2024-01-10T12:57:05;7.30;92.80
60027;DHT22;45891;53.006;6.512;2024-01-10T12:59:32;7.70;92.30
60027;DHT22;45891;53.006;6.512;2024-01-10T13:01:58;7.80;92.90
60027;DHT22;45891;53.006;6.512;2024-01-10T13:04:24;8.10;92.70
60027;DHT22;45891;53.006;6.512;2024-01-10T13:06:50;7.50;91.20
60027;DHT22;45891;53.006;6.512;2024-01-10T13:09:16;7.40;91.50
60027;DHT22;45891;53.006;6.512;2024-01-10T13:11:42;7.60;91.30
60027;DHT22;45891;53.006;6.512;2024-01-10T13:14:08;8.00;91.60
60027;DHT22;45891;53.006;6.512;2024-01-10T13:16:35;8.30;92.10
60027;DHT22;45891;53.006;6.512;2024-01-10T13:19:01;8.30;91.30
60027;DHT22;45891;53.006;6.512;2024-01-10T13:21:27;8.30;90.60
60027;DHT22;45891;53.006;6.512;2024-01-10T13:23:53;8.50;90.60
60027;DHT22;45891;53.006;6.512;2024-01-10T13:26:18;9.00;91.30
60027;DHT22;45891;53.006;6.512;2024-01-10T13:28:44;8.60;90.20
60027;DHT22;45891;53.006;6.512;2024-01-10T13:31:10;8.20;89.50
60027;DHT22;45891;53.006;6.512;2024-01-10T13:33:37;8.30;90.80
60027;DHT22;45891;53.006;6.512;2024-01-10T13:36:06;8.20;90.10
60027;DHT22;45891;53.006;6.512;2024-01-10T13:38:32;8.10;89.10
60027;DHT22;45891;53.006;6.512;2024-01-10T13:40:58;8.30;89.70
60027;DHT22;45891;53.006;6.512;2024-01-10T13:43:24;8.10;88.80
60027;DHT22;45891;53.006;6.512;2024-01-10T13:45:50;8.50;90.10
60027;DHT22;45891;53.006;6.512;2024-01-10T13:48:16;8.70;89.50
60027;DHT22;45891;53.006;6.512;2024-01-10T13:50:42;9.00;89.70
60027;DHT22;45891;53.006;6.512;2024-01-10T13:53:08;9.60;90.50
60027;DHT22;45891;53.006;6.512;2024-01-10T13:55:34;9.60;87.40
60027;DHT22;45891;53.006;6.512;2024-01-10T13:58:01;9.50;88.60
60027;DHT22;45891;53.006;6.512;2024-01-10T14:00:27;9.30;87.40
60027;DHT22;45891;53.006;6.512;2024-01-10T14:02:53;9.00;86.90
60027;DHT22;45891;53.006;6.512;2024-01-10T14:05:25;8.80;87.90
60027;DHT22;45891;53.006;6.512;2024-01-10T14:07:51;8.40;88.30
60027;DHT22;45891;53.006;6.512;2024-01-10T14:10:16;8.70;88.40
60027;DHT22;45891;53.006;6.512;2024-01-10T14:12:42;8.70;88.80
60027;DHT22;45891;53.006;6.512;2024-01-10T14:15:08;9.00;88.50
60027;DHT22;45891;53.006;6.512;2024-01-10T14:17:34;9.00;88.60
60027;DHT22;45891;53.006;6.512;2024-01-10T14:20:00;8.80;88.00
60027;DHT22;45891;53.006;6.512;2024-01-10T14:22:26;8.70;88.00
60027;DHT22;45891;53.006;6.512;2024-01-10T14:24:54;8.50;87.90
60027;DHT22;45891;53.006;6.512;2024-01-10T14:27:22;7.50;89.30
60027;DHT22;45891;53.006;6.512;2024-01-10T14:29:48;7.80;89.70
60027;DHT22;45891;53.006;6.512;2024-01-10T14:32:14;7.60;89.20
60027;DHT22;45891;53.006;6.512;2024-01-10T14:34:41;7.40;89.60
60027;DHT22;45891;53.006;6.512;2024-01-10T14:37:07;7.60;89.80
60027;DHT22;45891;53.006;6.512;2024-01-10T14:39:34;7.50;90.10
60027;DHT22;45891;53.006;6.512;2024-01-10T14:42:00;7.50;90.00
60027;DHT22;45891;53.006;6.512;2024-01-10T14:44:27;7.30;90.20
60027;DHT22;45891;53.006;6.512;2024-01-10T14:46:53;7.10;90.30
60027;DHT22;45891;53.006;6.512;2024-01-10T14:49:19;6.70;90.60
60027;DHT22;45891;53.006;6.512;2024-01-10T14:51:45;6.40;90.60
60027;DHT22;45891;53.006;6.512;2024-01-10T14:54:12;6.10;91.20
60027;DHT22;45891;53.006;6.512;2024-01-10T14:56:38;4.30;91.60
60027;DHT22;45891;53.006;6.512;2024-01-10T14:59:09;3.10;93.30
60027;DHT22;45891;53.006;6.512;2024-01-10T15:01:35;2.10;94.70
60027;DHT22;45891;53.006;6.512;2024-01-10T15:04:01;1.60;96.20
60027;DHT22;45891;53.006;6.512;2024-01-10T15:06:27;1.10;97.50
60027;DHT22;45891;53.006;6.512;2024-01-10T15:08:53;0.80;98.50
60027;DHT22;45891;53.006;6.512;2024-01-10T15:11:19;0.40;99.60
60027;DHT22;45891;53.006;6.512;2024-01-10T15:13:46;0.20;99.90
60027;DHT22;45891;53.006;6.512;2024-01-10T15:16:13;0.10;99.90
60027;DHT22;45891;53.006;6.512;2024-01-10T15:18:39;-0.10;99.90
60027;DHT22;45891;53.006;6.512;2024-01-10T15:21:04;-0.30;99.90
60027;DHT22;45891;53.006;6.512;2024-01-10T15:23:31;-0.40;99.90
60027;DHT22;45891;53.006;6.512;2024-01-10T15:25:57;-0.50;99.90
60027;DHT22;45891;53.006;6.512;2024-01-10T15:28:23;-0.60;99.90
60027;DHT22;45891;53.006;6.512;2024-01-10T15:30:49;-0.70;99.90
60027;DHT22;45891;53.006;6.512;2024-01-10T15:33:17;-0.80;99.90
60027;DHT22;45891;53.006;6.512;2024-01-10T15:35:43;-0.90;99.90